createdAt,value
2022-10-07T00:00:02.386Z,100799.50
2022-10-07T00:01:11.027Z,100806.66
2022-10-07T00:02:16.191Z,100800.56
2022-10-07T00:03:31.991Z,100807.81
2022-10-07T00:04:49.816Z,100806.28
2022-10-07T00:06:22.315Z,100802.84
2022-10-07T00:07:32.355Z,100802.16
2022-10-07T00:08:45.919Z,100803.09
2022-10-07T00:09:52.936Z,100805.03
2022-10-07T00:11:15.792Z,100805.19
2022-10-07T00:12:24.875Z,100799.09
2022-10-07T00:13:39.692Z,100802.13
2022-10-07T00:14:46.866Z,100790.59
2022-10-07T00:15:53.896Z,100794.28
2022-10-07T00:16:58.088Z,100785.66
2022-10-07T00:18:06.054Z,100791.00
2022-10-07T00:19:13.376Z,100790.25
2022-10-07T00:20:43.117Z,100790.44
2022-10-07T00:21:47.761Z,100788.63
2022-10-07T00:22:55.777Z,100787.00
2022-10-07T00:24:00.565Z,100788.91
2022-10-07T00:25:10.600Z,100795.19
2022-10-07T00:26:30.701Z,100792.69
2022-10-07T00:27:34.579Z,100788.31
2022-10-07T00:28:42.043Z,100791.94
2022-10-07T00:29:46.439Z,100786.78
2022-10-07T00:31:13.354Z,100787.66
2022-10-07T00:32:22.261Z,100786.94
2022-10-07T00:33:27.254Z,100786.09
2022-10-07T00:34:32.337Z,100780.84
2022-10-07T00:35:37.002Z,100778.09
2022-10-07T00:36:49.575Z,100785.16
2022-10-07T00:38:05.404Z,100779.13
2022-10-07T00:39:14.911Z,100781.91
2022-10-07T00:40:18.906Z,100780.09
2022-10-07T00:41:31.072Z,100784.66
2022-10-07T00:43:07.914Z,100777.59
2022-10-07T00:44:45.906Z,100778.75
2022-10-07T00:45:52.402Z,100772.59
2022-10-07T00:47:01.448Z,100772.59
2022-10-07T00:48:06.668Z,100772.69
2022-10-07T00:49:14.594Z,100777.38
2022-10-07T00:50:29.692Z,100765.06
2022-10-07T00:51:54.608Z,100766.00
2022-10-07T00:53:02.668Z,100769.47
2022-10-07T00:54:17.344Z,100766.00
2022-10-07T00:55:31.132Z,100762.38
2022-10-07T00:56:44.164Z,100767.72
2022-10-07T00:57:53.229Z,100764.13
2022-10-07T00:59:01.007Z,100761.53
2022-10-07T01:00:07.950Z,100757.03
2022-10-07T01:01:13.237Z,100770.47
2022-10-07T01:02:21.049Z,100765.16
2022-10-07T01:03:25.494Z,100768.78
2022-10-07T01:04:29.827Z,100760.00
2022-10-07T01:05:33.781Z,100767.22
2022-10-07T01:06:48.235Z,100756.53
2022-10-07T01:07:54.940Z,100761.13
2022-10-07T01:09:02.105Z,100761.13
2022-10-07T01:10:08.816Z,100757.59
2022-10-07T01:11:52.662Z,100760.53
2022-10-07T01:13:17.651Z,100758.75
2022-10-07T01:14:54.970Z,100756.31
2022-10-07T01:18:39.433Z,100759.34
2022-10-07T01:19:52.613Z,100747.81
2022-10-07T01:21:12.076Z,100748.56
2022-10-07T01:22:56.730Z,100751.44
2022-10-07T01:24:52.241Z,100754.19
2022-10-07T01:26:55.621Z,100750.84
2022-10-07T01:28:14.377Z,100757.13
2022-10-07T01:29:40.942Z,100751.13
2022-10-07T01:31:06.322Z,100749.38
2022-10-07T01:32:19.527Z,100750.41
2022-10-07T01:33:33.439Z,100750.41
2022-10-07T01:34:39.565Z,100747.66
2022-10-07T01:35:49.936Z,100746.91
2022-10-07T01:37:05.242Z,100747.84
2022-10-07T01:38:14.056Z,100746.13
2022-10-07T01:39:25.165Z,100749.75
2022-10-07T01:40:45.220Z,100748.88
2022-10-07T01:41:51.019Z,100742.09
2022-10-07T01:42:56.445Z,100743.03
2022-10-07T01:44:13.312Z,100743.03
2022-10-07T01:45:30.875Z,100738.81
2022-10-07T01:46:44.683Z,100739.59
2022-10-07T01:47:53.010Z,100731.59
2022-10-07T01:48:57.996Z,100733.31
2022-10-07T01:50:01.742Z,100734.44
2022-10-07T01:51:08.635Z,100737.53
2022-10-07T01:52:34.778Z,100736.19
2022-10-07T01:54:21.924Z,100737.88
2022-10-07T01:56:02.773Z,100738.94
2022-10-07T01:57:24.935Z,100733.66
2022-10-07T07:18:36.791Z,100629.81
2022-10-07T07:20:17.942Z,100626.50
2022-10-07T07:21:58.772Z,100621.47
2022-10-07T13:20:43.518Z,100156.97
2022-10-07T14:11:33.679Z,100064.31
2022-10-07T14:13:27.957Z,100064.72
2022-10-07T14:20:04.725Z,100049.97
2022-10-07T14:21:54.042Z,100057.38
2022-10-07T19:54:48.115Z,99857.44
2022-10-07T19:57:00.250Z,99856.84
2022-10-07T19:58:41.046Z,99857.94
2022-10-07T23:52:27.112Z,99755.53
